Time;durP1;ratioP1;P1;durP2;ratioP2;P2;SDS_P1;SDS_P2;PMS_P1;PMS_P2;Temp;Humidity;BMP_temperature;BMP_pressure;BME280_temperature;BME280_humidity;BME280_pressure;Samples;Min_cycle;Max_cycle;Signal;HPM_P1;HPM_P2
2023/04/08 00:02:17;;;;;;;9.20;3.63;;;;;;;11.18;51.20;99946.06;5038382;28;20512;-64
2023/04/08 00:04:42;;;;;;;11.20;3.97;;;;;;;11.16;50.72;99947.84;5038175;28;20025;-65
2023/04/08 00:07:07;;;;;;;12.70;3.93;;;;;;;11.12;50.72;99956.69;5036949;28;20086;-65
2023/04/08 00:09:33;;;;;;;13.15;4.63;;;;;;;11.12;50.89;99959.31;5037536;28;20056;-65
2023/04/08 00:11:58;;;;;;;11.13;4.00;;;;;;;11.10;51.20;99958.47;5038150;28;20124;-64
2023/04/08 00:14:24;;;;;;;8.00;3.17;;;;;;;11.10;50.79;99957.63;5038072;28;20033;-65
2023/04/08 00:16:49;;;;;;;10.43;3.33;;;;;;;11.08;50.88;99960.25;5037988;28;20067;-64
2023/04/08 00:19:15;;;;;;;10.75;3.60;;;;;;;11.06;51.13;99962.03;5037756;28;20158;-65
2023/04/08 00:21:40;;;;;;;10.80;3.77;;;;;;;10.99;51.30;99957.72;5037578;28;20604;-65
2023/04/08 00:24:05;;;;;;;8.10;3.20;;;;;;;10.99;50.88;99955.94;5036213;28;20120;-64
2023/04/08 00:26:31;;;;;;;7.30;2.83;;;;;;;10.95;51.18;99954.25;5037889;28;20402;-64
2023/04/08 00:28:57;;;;;;;8.82;2.67;;;;;;;10.89;51.49;99960.44;5037487;28;20144;-64
2023/04/08 00:31:22;;;;;;;8.30;2.97;;;;;;;10.88;51.65;99958.69;5037240;28;20441;-64
2023/04/08 00:33:48;;;;;;;7.82;2.72;;;;;;;10.81;51.57;99957.03;5037417;28;20112;-64
2023/04/08 00:36:13;;;;;;;9.30;2.60;;;;;;;10.76;51.68;99958.84;5044535;28;20033;-64
2023/04/08 00:38:39;;;;;;;8.30;2.90;;;;;;;10.77;51.75;99957.94;5057131;28;20033;-64
2023/04/08 00:41:04;;;;;;;7.45;3.00;;;;;;;10.74;51.67;99963.25;5051838;28;20429;-64
2023/04/08 00:43:30;;;;;;;9.93;2.90;;;;;;;10.71;52.08;99957.97;5037507;28;20093;-65
2023/04/08 00:45:55;;;;;;;11.90;2.77;;;;;;;10.67;51.75;99958.91;5037664;28;20025;-64
2023/04/08 00:48:21;;;;;;;8.25;3.10;;;;;;;10.65;51.85;99965.94;5037374;28;20390;-64
2023/04/08 00:50:46;;;;;;;7.07;2.93;;;;;;;10.61;52.11;99965.13;5037730;28;20160;-64
2023/04/08 00:53:17;;;;;;;7.07;2.53;;;;;;;10.59;52.65;99967.75;5037202;28;20163;-64
2023/04/08 00:55:42;;;;;;;8.43;2.95;;;;;;;10.59;51.96;99965.13;5037310;28;20451;-64
2023/04/08 00:58:08;;;;;;;7.13;2.70;;;;;;;10.53;52.51;99967.81;5037144;28;20084;-65
2023/04/08 01:00:41;;;;;;;7.83;3.17;;;;;;;10.48;52.66;99964.34;5037264;28;20272;-64
2023/04/08 01:03:17;;;;;;;8.20;2.83;;;;;;;10.43;52.79;99972.28;5036960;28;20438;-64
2023/04/08 01:06:07;;;;;;;9.57;2.60;;;;;;;10.39;53.14;99967.03;5036993;28;20108;-64
2023/04/08 01:08:36;;;;;;;10.30;2.47;;;;;;;10.37;52.58;99963.53;5036534;28;20183;-64
2023/04/08 01:11:04;;;;;;;5.55;2.30;;;;;;;10.36;52.67;99972.31;5036982;28;20057;-64
2023/04/08 01:13:35;;;;;;;7.20;2.40;;;;;;;10.39;52.65;99967.03;5036994;28;20033;-64
2023/04/08 01:16:01;;;;;;;6.03;2.10;;;;;;;10.37;52.65;99960.91;5036769;28;20061;-64
2023/04/08 01:18:28;;;;;;;9.80;2.30;;;;;;;10.33;52.86;99952.13;5044153;28;20075;-64
2023/04/08 01:20:54;;;;;;;6.07;2.30;;;;;;;10.31;52.87;99956.53;5044764;28;20025;-64
2023/04/08 01:23:40;;;;;;;7.65;2.72;;;;;;;10.24;53.50;99950.44;5036462;28;20144;-64
2023/04/08 01:26:05;;;;;;;6.53;2.17;;;;;;;10.14;53.61;99960.19;5035352;28;20033;-64
2023/04/08 01:28:34;;;;;;;7.43;2.20;;;;;;;10.15;52.88;99958.44;5036558;28;20121;-64
2023/04/08 01:31:01;;;;;;;6.18;2.10;;;;;;;10.13;53.25;99952.31;5036479;28;20043;-64
2023/04/08 01:33:27;;;;;;;7.75;2.92;;;;;;;10.09;53.59;99953.22;5036709;28;20036;-64
2023/04/08 01:35:54;;;;;;;5.57;2.07;;;;;;;10.00;53.80;99951.53;5038794;28;20025;-64
2023/04/08 01:38:24;;;;;;;7.68;2.55;;;;;;;9.97;53.64;99952.41;5056186;28;20089;-64
2023/04/08 01:40:51;;;;;;;6.57;2.67;;;;;;;9.97;53.95;99947.13;5054061;28;20079;-64
2023/04/08 01:43:18;;;;;;;5.88;2.00;;;;;;;9.94;53.71;99951.56;5035646;28;20043;-64
2023/04/08 01:45:45;;;;;;;6.10;2.30;;;;;;;9.93;53.61;99947.19;5036452;28;20030;-65
2023/04/08 01:48:12;;;;;;;5.30;2.20;;;;;;;9.87;53.91;99950.72;5036636;28;20029;-65
2023/04/08 01:50:40;;;;;;;8.35;2.50;;;;;;;9.84;54.07;99948.13;5036364;28;20021;-64
2023/04/08 01:53:08;;;;;;;6.78;2.05;;;;;;;9.86;54.05;99957.72;5036392;28;20061;-64
2023/04/08 01:55:35;;;;;;;6.93;1.83;;;;;;;9.83;54.15;99955.13;5036383;28;20034;-64
2023/04/08 01:58:04;;;;;;;6.00;2.38;;;;;;;9.84;53.68;99958.63;5036426;28;20061;-64
2023/04/08 02:00:31;;;;;;;8.87;2.57;;;;;;;9.83;53.92;99959.53;5035175;28;20021;-64
2023/04/08 02:02:58;;;;;;;5.72;1.83;;;;;;;9.82;54.19;99968.31;5036636;28;20112;-64
2023/04/08 02:05:24;;;;;;;5.00;2.15;;;;;;;9.84;54.00;99959.50;5036364;28;20040;-64
2023/04/08 02:07:49;;;;;;;8.23;2.37;;;;;;;9.76;54.38;99970.06;5036173;28;20108;-64
2023/04/08 02:10:15;;;;;;;7.07;2.40;;;;;;;9.73;54.00;99969.22;5036341;28;20132;-64
2023/04/08 02:12:43;;;;;;;6.37;2.20;;;;;;;9.63;54.29;99969.25;5036540;28;20030;-64
2023/04/08 02:15:09;;;;;;;6.80;2.15;;;;;;;9.63;54.29;99957.88;5056067;28;20079;-64
2023/04/08 02:17:45;;;;;;;5.60;2.10;;;;;;;9.59;55.17;99964.91;5043309;28;20060;-64
2023/04/08 02:20:16;;;;;;;5.82;2.05;;;;;;;9.57;54.72;99968.44;5036420;28;20121;-64
2023/04/08 02:23:08;;;;;;;6.93;2.40;;;;;;;9.58;55.35;99967.53;5033370;28;20042;-64
2023/04/08 02:25:36;;;;;;;5.47;2.00;;;;;;;9.59;54.34;99977.19;5034958;28;20032;-64
2023/04/08 02:28:04;;;;;;;8.30;2.20;;;;;;;9.60;54.39;99963.16;5036074;28;20087;-64
2023/04/08 02:30:32;;;;;;;6.45;2.20;;;;;;;9.61;54.38;99964.91;5036118;28;20035;-64
2023/04/08 02:33:00;;;;;;;7.88;2.53;;;;;;;9.58;54.40;99960.50;5036194;28;20116;-64
2023/04/08 02:35:27;;;;;;;6.90;2.27;;;;;;;9.56;54.44;99970.16;5036230;28;20026;-64
2023/04/08 02:37:52;;;;;;;7.47;2.35;;;;;;;9.53;54.68;99967.56;5061425;28;20051;-64
2023/04/08 02:40:25;;;;;;;7.17;2.00;;;;;;;9.46;54.75;99968.47;5055955;28;20041;-64
2023/04/08 02:42:50;;;;;;;6.15;2.35;;;;;;;9.42;54.65;99974.63;5037167;28;20040;-64
2023/04/08 02:45:16;;;;;;;8.25;2.22;;;;;;;9.39;54.58;99969.34;5036016;28;20037;-64
2023/04/08 02:47:42;;;;;;;5.78;2.20;;;;;;;9.34;55.02;99972.88;5036127;28;20505;-64
2023/04/08 02:50:07;;;;;;;5.97;2.40;;;;;;;9.32;54.83;99979.03;5036296;28;20029;-64
2023/04/08 02:52:33;;;;;;;7.27;2.50;;;;;;;9.29;55.00;99974.66;5035910;28;20032;-64
2023/04/08 02:54:58;;;;;;;6.77;2.20;;;;;;;9.27;55.13;99978.16;5038906;28;20402;-64
2023/04/08 02:57:24;;;;;;;6.53;2.30;;;;;;;9.22;55.08;99966.81;5039629;28;20025;-64
2023/04/08 02:59:49;;;;;;;6.50;2.27;;;;;;;9.19;55.35;99971.19;5039659;28;20029;-64
2023/04/08 03:02:14;;;;;;;6.73;2.20;;;;;;;9.12;55.21;99977.34;5039606;28;20031;-64
2023/04/08 03:04:40;;;;;;;5.90;2.30;;;;;;;9.09;55.36;99966.84;5039598;28;20033;-63
2023/04/08 03:07:05;;;;;;;5.85;2.20;;;;;;;9.06;55.14;99972.13;5039569;28;20448;-64
2023/04/08 03:09:31;;;;;;;8.43;2.20;;;;;;;9.03;55.46;99972.09;5038734;28;20053;-64
2023/04/08 03:11:56;;;;;;;6.17;2.30;;;;;;;8.99;55.65;99971.25;5059278;28;20056;-64
2023/04/08 03:14:22;;;;;;;10.10;2.23;;;;;;;8.97;55.47;99966.88;5059267;28;20082;-64
2023/04/08 03:16:47;;;;;;;8.23;2.30;;;;;;;8.96;55.47;99970.38;5052589;28;20022;-64
2023/04/08 03:19:13;;;;;;;6.27;2.23;;;;;;;8.97;55.44;99983.53;5039380;28;20025;-64
2023/04/08 03:21:38;;;;;;;6.80;2.37;;;;;;;8.97;55.42;99980.88;5039030;28;20026;-64
2023/04/08 03:24:04;;;;;;;12.33;2.20;;;;;;;8.94;55.70;99986.16;5038837;28;20055;-64
2023/04/08 03:26:29;;;;;;;5.57;2.20;;;;;;;8.93;55.56;99980.88;5039225;28;20025;-64
2023/04/08 03:28:55;;;;;;;7.63;2.30;;;;;;;8.86;55.53;99970.41;5038873;28;20032;-64
2023/04/08 03:31:20;;;;;;;8.23;2.13;;;;;;;8.81;55.68;99987.94;5038994;28;20025;-64
2023/04/08 03:33:46;;;;;;;6.27;2.20;;;;;;;8.78;55.79;99980.03;5039008;28;20458;-63
2023/04/08 03:36:11;;;;;;;6.43;3.10;;;;;;;8.74;55.62;99983.53;5045202;28;20021;-64
2023/04/08 03:38:36;;;;;;;7.80;2.10;;;;;;;8.71;55.89;99976.56;5058501;28;20535;-63
2023/04/08 03:41:02;;;;;;;8.88;2.35;;;;;;;8.67;55.97;99980.03;5054565;28;20075;-64
2023/04/08 03:43:27;;;;;;;7.00;1.93;;;;;;;8.64;56.05;99979.19;5038818;28;20037;-64
2023/04/08 03:45:53;;;;;;;7.60;2.40;;;;;;;8.63;56.11;99987.94;5038740;28;20029;-64
2023/04/08 03:48:18;;;;;;;7.07;2.40;;;;;;;8.61;56.24;99987.91;5038732;28;20113;-64
2023/04/08 03:50:43;;;;;;;10.00;2.57;;;;;;;8.57;56.02;99983.56;5038685;28;20036;-63
2023/04/08 03:53:11;;;;;;;5.53;2.30;;;;;;;8.52;56.34;99982.69;5038401;28;20554;-64
2023/04/08 03:55:36;;;;;;;7.23;2.17;;;;;;;8.50;56.43;99981.81;5038457;28;20033;-64
2023/04/08 03:58:01;;;;;;;6.95;2.20;;;;;;;8.47;56.10;99980.03;5037134;28;20051;-64
2023/04/08 04:00:27;;;;;;;6.40;2.23;;;;;;;8.43;56.32;99980.91;5038442;28;20401;-64
2023/04/08 04:02:54;;;;;;;8.50;2.60;;;;;;;8.41;56.37;99980.03;5037410;28;20021;-64
2023/04/08 04:05:19;;;;;;;6.63;2.17;;;;;;;8.38;56.19;99969.53;5037245;28;20489;-64
2023/04/08 04:07:45;;;;;;;7.17;2.37;;;;;;;8.35;56.14;99969.53;5050514;28;20458;-63
2023/04/08 04:10:10;;;;;;;7.47;2.07;;;;;;;8.31;56.11;99976.53;5071758;28;20046;-63
2023/04/08 04:12:36;;;;;;;6.30;1.98;;;;;;;8.24;56.06;99970.41;5038405;28;20040;-64
2023/04/08 04:15:01;;;;;;;7.07;2.20;;;;;;;8.22;56.23;99972.16;5038329;28;20063;-64
2023/04/08 04:17:27;;;;;;;7.70;2.53;;;;;;;8.16;56.17;99973.00;5038252;28;20056;-64
2023/04/08 04:19:52;;;;;;;8.17;2.30;;;;;;;8.07;56.37;99966.88;5037990;28;20060;-64
2023/04/08 04:22:17;;;;;;;7.10;2.40;;;;;;;8.01;56.29;99971.25;5037957;28;20041;-63
2023/04/08 04:24:47;;;;;;;7.37;2.40;;;;;;;7.98;57.04;99973.84;5037976;28;20033;-63
2023/04/08 04:27:13;;;;;;;6.00;2.60;;;;;;;7.97;56.73;99977.34;5038017;28;20120;-64
2023/04/08 04:29:38;;;;;;;7.32;2.50;;;;;;;7.93;56.54;99972.97;5036344;28;20116;-64
2023/04/08 04:32:05;;;;;;;7.53;2.67;;;;;;;7.90;56.59;99972.97;5038147;28;20021;-63
2023/04/08 04:34:31;;;;;;;7.38;2.20;;;;;;;7.87;56.90;99972.97;5036371;28;20453;-64
2023/04/08 04:36:56;;;;;;;6.13;2.33;;;;;;;7.85;57.20;99969.47;5050931;28;20032;-63
2023/04/08 04:39:21;;;;;;;7.67;2.27;;;;;;;7.83;57.18;99981.69;5057356;28;20029;-64
2023/04/08 04:41:48;;;;;;;6.73;2.70;;;;;;;7.79;56.67;99988.69;5047703;28;20035;-64
2023/04/08 04:44:13;;;;;;;6.93;2.40;;;;;;;7.78;56.83;99991.28;5037631;28;20278;-63
2023/04/08 04:46:39;;;;;;;7.47;2.30;;;;;;;7.74;56.57;99986.03;5037765;28;20025;-64
2023/04/08 04:49:05;;;;;;;6.37;2.30;;;;;;;7.74;57.37;99988.66;5037649;28;20493;-64
2023/04/08 04:51:31;;;;;;;5.53;2.10;;;;;;;7.70;57.32;99999.13;5037532;28;20112;-64
2023/04/08 04:53:57;;;;;;;5.20;2.20;;;;;;;7.68;57.19;99996.50;5037219;28;20486;-63
2023/04/08 04:56:22;;;;;;;6.80;2.80;;;;;;;7.68;57.53;99999.13;5037657;28;20111;-64
2023/04/08 04:58:48;;;;;;;6.93;2.90;;;;;;;7.67;57.45;100002.63;5037256;28;20034;-64
2023/04/08 05:01:13;;;;;;;6.17;2.43;;;;;;;7.68;57.54;100001.75;5037539;28;20100;-63
2023/04/08 05:03:38;;;;;;;7.53;2.13;;;;;;;7.67;57.38;99999.13;5042675;28;20033;-64
2023/04/08 05:06:04;;;;;;;6.83;2.50;;;;;;;7.67;56.84;99994.75;5057449;28;20024;-64
2023/04/08 05:08:29;;;;;;;6.53;2.40;;;;;;;7.64;56.56;99992.13;5050828;28;20116;-64
2023/04/08 05:10:55;;;;;;;7.60;2.40;;;;;;;7.57;57.51;99990.34;5069408;28;20057;-63
2023/04/08 05:13:21;;;;;;;8.07;2.50;;;;;;;7.49;57.13;99999.91;5037442;28;20171;-64
2023/04/08 05:15:46;;;;;;;7.18;2.30;;;;;;;7.44;57.08;99992.03;5037242;28;20029;-64
2023/04/08 05:18:11;;;;;;;6.47;2.27;;;;;;;7.44;57.57;100007.75;5035528;28;20055;-64
2023/04/08 05:20:37;;;;;;;6.07;2.53;;;;;;;7.41;57.33;100008.63;5037155;28;20486;-63
2023/04/08 05:23:02;;;;;;;7.93;2.43;;;;;;;7.38;57.57;100005.13;5036867;28;20268;-63
2023/04/08 05:25:29;;;;;;;6.27;2.33;;;;;;;7.33;57.72;100005.06;5037176;28;20021;-64
2023/04/08 05:27:54;;;;;;;7.47;2.95;;;;;;;7.30;57.42;100010.31;5036775;28;20057;-63
2023/04/08 05:30:20;;;;;;;6.87;2.50;;;;;;;7.27;57.07;100016.44;5036937;28;20029;-64
2023/04/08 05:32:45;;;;;;;7.33;2.47;;;;;;;7.26;57.76;100012.06;5036828;28;20071;-64
2023/04/08 05:35:11;;;;;;;9.07;2.50;;;;;;;7.24;58.02;100020.75;5036885;28;20032;-63
2023/04/08 05:37:36;;;;;;;8.90;3.10;;;;;;;7.23;57.85;100034.72;5054279;28;20060;-63
2023/04/08 05:40:02;;;;;;;6.43;2.40;;;;;;;7.23;57.65;100037.34;5056619;28;20440;-64
2023/04/08 05:42:27;;;;;;;7.07;2.90;;;;;;;7.23;57.69;100045.19;5040949;28;20021;-63
2023/04/08 05:44:53;;;;;;;7.97;2.70;;;;;;;7.12;58.83;100051.25;5037041;28;20029;-63
2023/04/08 05:47:18;;;;;;;7.43;2.57;;;;;;;7.11;58.16;100059.09;5036774;28;20025;-63
2023/04/08 05:49:44;;;;;;;6.83;2.40;;;;;;;7.12;58.33;100069.59;5036936;28;20057;-65
2023/04/08 05:52:09;;;;;;;6.90;2.20;;;;;;;7.15;58.07;100064.38;5036543;28;20152;-63
2023/04/08 05:54:34;;;;;;;7.13;2.63;;;;;;;7.28;57.82;100072.28;5036636;28;20026;-64
2023/04/08 05:57:00;;;;;;;8.07;2.80;;;;;;;7.55;57.52;100078.56;5036935;28;20026;-65
2023/04/08 05:59:25;;;;;;;8.93;2.90;;;;;;;7.91;56.26;100079.59;5046932;28;20061;-64
2023/04/08 06:01:51;;;;;;;7.47;3.20;;;;;;;8.10;55.80;100080.53;5056642;28;20056;-64
2023/04/08 06:04:16;;;;;;;6.57;2.80;;;;;;;8.29;55.26;100078.81;5056740;28;20393;-64
2023/04/08 06:06:42;;;;;;;7.43;3.07;;;;;;;8.48;55.21;100079.75;5056587;28;20112;-64
2023/04/08 06:09:08;;;;;;;8.63;2.90;;;;;;;8.68;54.60;100085.94;5046401;28;20075;-64
2023/04/08 06:11:34;;;;;;;7.37;2.97;;;;;;;8.92;54.34;100094.69;5036453;28;20544;-63
2023/04/08 06:13:59;;;;;;;8.65;2.88;;;;;;;9.17;54.34;100083.28;5036774;28;20398;-64
2023/04/08 06:16:25;;;;;;;8.57;2.83;;;;;;;9.40;53.90;100087.63;5036580;28;20018;-63
2023/04/08 06:18:50;;;;;;;7.67;3.00;;;;;;;9.62;53.40;100083.19;5036460;28;20025;-64
2023/04/08 06:21:16;;;;;;;8.10;2.90;;;;;;;9.83;53.30;100081.34;5036387;28;20636;-64
2023/04/08 06:23:41;;;;;;;8.17;3.07;;;;;;;10.04;52.67;100080.41;5036232;28;20098;-63
2023/04/08 06:26:08;;;;;;;6.55;3.13;;;;;;;10.22;52.34;100078.53;5036541;28;20045;-63
2023/04/08 06:28:33;;;;;;;10.30;3.37;;;;;;;10.27;52.50;100076.78;5037316;28;20025;-63
2023/04/08 06:30:59;;;;;;;7.70;3.33;;;;;;;10.40;52.45;100076.69;5040251;28;20033;-64
2023/04/08 06:33:24;;;;;;;8.77;3.15;;;;;;;10.59;52.04;100075.72;5040118;28;20080;-64
2023/04/08 06:35:50;;;;;;;7.73;3.30;;;;;;;10.76;51.74;100080.84;5044013;28;20079;-64
2023/04/08 06:38:15;;;;;;;8.43;3.60;;;;;;;10.86;51.85;100080.78;5060016;28;20051;-64
2023/04/08 06:40:41;;;;;;;10.13;4.30;;;;;;;11.01;51.67;100083.28;5058923;28;20086;-64
2023/04/08 06:43:06;;;;;;;12.18;4.78;;;;;;;11.21;51.43;100076.94;5039962;28;20096;-64
2023/04/08 06:45:35;;;;;;;10.57;4.77;;;;;;;11.40;51.27;100088.19;5040062;28;20021;-64
2023/04/08 06:48:00;;;;;;;8.93;4.18;;;;;;;11.59;51.69;100088.00;5038997;28;20029;-64
2023/04/08 06:50:26;;;;;;;8.70;3.47;;;;;;;11.76;51.29;100090.44;5039941;28;20034;-64
2023/04/08 06:52:51;;;;;;;9.70;3.73;;;;;;;11.88;51.20;100098.22;5039684;28;20033;-64
2023/04/08 06:55:17;;;;;;;9.03;3.53;;;;;;;11.92;50.96;100096.38;5043299;28;20274;-64
2023/04/08 06:57:42;;;;;;;9.33;3.33;;;;;;;12.07;51.08;100095.38;5041687;28;20029;-64
2023/04/08 07:00:08;;;;;;;8.60;2.93;;;;;;;12.17;51.17;100091.72;5039740;28;20397;-64
2023/04/08 07:02:33;;;;;;;8.38;3.55;;;;;;;12.20;50.83;100090.81;5039810;28;20025;-64
2023/04/08 07:04:59;;;;;;;8.17;3.33;;;;;;;12.32;50.65;100090.63;5039669;28;20025;-64
2023/04/08 07:07:25;;;;;;;9.80;3.27;;;;;;;12.33;51.01;100102.06;5039416;28;20489;-64
2023/04/08 07:09:50;;;;;;;8.07;3.05;;;;;;;12.28;50.87;100094.19;5039242;28;20067;-65
2023/04/08 07:12:16;;;;;;;5.77;2.73;;;;;;;12.44;51.00;100096.63;5039729;28;20397;-64
2023/04/08 07:14:41;;;;;;;6.63;2.50;;;;;;;12.73;50.59;100103.25;5039418;28;20033;-64
2023/04/08 07:17:06;;;;;;;8.77;2.80;;;;;;;13.00;50.06;100101.06;5039481;28;20025;-64
2023/04/08 07:19:32;;;;;;;9.40;3.33;;;;;;;13.26;49.96;100099.72;5039141;28;20029;-64
2023/04/08 07:21:57;;;;;;;10.77;3.40;;;;;;;13.49;49.53;100099.31;5039084;28;20029;-64
2023/04/08 07:24:23;;;;;;;8.15;2.70;;;;;;;13.76;49.31;100102.38;5039002;28;20475;-64
2023/04/08 07:26:48;;;;;;;10.00;3.27;;;;;;;13.97;49.09;100102.81;5038340;28;20033;-64
2023/04/08 07:29:14;;;;;;;7.53;2.93;;;;;;;14.12;48.31;100102.50;5038911;28;20020;-64
2023/04/08 07:31:42;;;;;;;7.35;2.85;;;;;;;14.15;48.33;100102.41;5039161;28;20021;-64
2023/04/08 07:34:07;;;;;;;8.65;3.05;;;;;;;14.27;47.91;100111.03;5039107;28;20029;-64
2023/04/08 07:36:32;;;;;;;8.20;3.20;;;;;;;14.33;47.88;100117.03;5048599;28;20024;-64
2023/04/08 07:38:58;;;;;;;9.00;3.50;;;;;;;14.33;47.73;100117.03;5058606;28;20021;-64
2023/04/08 07:41:23;;;;;;;9.63;3.72;;;;;;;14.38;47.97;100108.13;5050710;28;20033;-64
2023/04/08 07:43:49;;;;;;;10.03;3.20;;;;;;;14.51;47.64;100114.88;5039037;28;20029;-64
2023/04/08 07:46:14;;;;;;;9.37;3.07;;;;;;;14.65;47.22;100119.88;5039122;28;20394;-64
2023/04/08 07:48:39;;;;;;;7.23;3.73;;;;;;;14.90;46.94;100122.84;5038995;28;20099;-64
2023/04/08 07:51:07;;;;;;;9.13;3.60;;;;;;;15.14;46.84;100125.81;5038722;28;20063;-64
2023/04/08 07:53:33;;;;;;;8.40;3.80;;;;;;;15.36;46.53;100119.94;5054451;28;20037;-64
2023/04/08 07:55:59;;;;;;;8.98;3.45;;;;;;;15.62;46.07;100123.69;5055047;28;20025;-64
2023/04/08 07:58:25;;;;;;;7.95;3.50;;;;;;;15.78;45.27;100124.13;5038671;28;20511;-64
2023/04/08 08:00:50;;;;;;;8.40;3.22;;;;;;;15.91;45.00;100127.34;5038650;28;20036;-65
2023/04/08 08:03:16;;;;;;;8.47;2.90;;;;;;;15.90;45.07;100130.91;5038669;28;20029;-64
2023/04/08 08:05:41;;;;;;;9.27;3.20;;;;;;;16.07;45.03;100125.97;5038582;28;20079;-64
2023/04/08 08:08:07;;;;;;;8.05;3.20;;;;;;;16.40;43.96;100126.81;5038091;28;20044;-65
2023/04/08 08:10:32;;;;;;;7.50;2.80;;;;;;;16.74;43.26;100139.03;5037225;28;20517;-65
2023/04/08 08:12:58;;;;;;;6.43;2.70;;;;;;;17.18;42.59;100136.75;5038507;28;20456;-65
2023/04/08 08:15:24;;;;;;;7.70;2.30;;;;;;;17.61;41.92;100136.19;5038465;28;20030;-65
2023/04/08 08:17:49;;;;;;;7.60;2.60;;;;;;;18.01;41.35;100129.47;5038070;28;20498;-64
2023/04/08 08:20:15;;;;;;;6.10;2.40;;;;;;;18.20;40.46;100128.72;5038119;28;20026;-65
2023/04/08 08:22:40;;;;;;;8.77;2.80;;;;;;;18.40;40.27;100129.78;5038042;28;20025;-65
2023/04/08 08:25:08;;;;;;;6.17;2.33;;;;;;;18.41;40.13;100128.84;5038138;28;20030;-65
2023/04/08 08:27:33;;;;;;;6.70;2.30;;;;;;;18.46;39.86;100126.88;5037953;28;20260;-65
2023/04/08 08:29:59;;;;;;;6.78;2.30;;;;;;;18.44;39.39;100131.38;5038249;28;20051;-65
2023/04/08 08:32:24;;;;;;;6.17;2.20;;;;;;;18.41;39.36;100126.19;5037963;28;20164;-65
2023/04/08 08:34:50;;;;;;;8.27;2.73;;;;;;;18.46;39.34;100132.22;5038029;28;20043;-65
2023/04/08 08:37:15;;;;;;;7.50;1.92;;;;;;;18.48;39.45;100127.69;5052934;28;20032;-65
2023/04/08 08:39:41;;;;;;;6.63;1.63;;;;;;;18.47;38.58;100121.47;5057584;28;20060;-65
2023/04/08 08:42:06;;;;;;;6.67;1.50;;;;;;;18.30;39.12;100134.59;5044860;28;20401;-65
2023/04/08 08:44:32;;;;;;;5.50;1.50;;;;;;;18.26;39.14;100128.53;5037863;28;20025;-65
2023/04/08 08:46:57;;;;;;;6.30;1.33;;;;;;;18.13;38.92;100132.56;5039293;28;20091;-65
2023/04/08 08:49:23;;;;;;;4.70;1.23;;;;;;;18.21;39.23;100147.34;5057621;28;20104;-65
2023/04/08 08:51:49;;;;;;;4.77;1.50;;;;;;;18.25;38.88;100140.13;5057158;28;20028;-65
2023/04/08 08:54:15;;;;;;;6.93;1.90;;;;;;;18.31;38.61;100145.19;5057552;28;20477;-65
2023/04/08 08:56:42;;;;;;;6.32;1.77;;;;;;;18.24;38.95;100141.03;5047876;28;20087;-65
2023/04/08 08:59:08;;;;;;;5.13;1.23;;;;;;;18.17;38.65;100139.53;5037822;28;20048;-65
2023/04/08 09:01:35;;;;;;;5.90;1.10;;;;;;;18.26;38.79;100138.31;5037400;28;20059;-65
2023/04/08 09:04:09;;;;;;;5.03;1.10;;;;;;;18.22;38.62;100141.09;5036123;28;20409;-65
2023/04/08 09:06:35;;;;;;;4.65;0.90;;;;;;;18.26;38.11;100136.53;5037630;28;20047;-65
2023/04/08 09:09:03;;;;;;;9.00;3.67;;;;;;;18.36;38.05;100137.03;5037266;28;20127;-64
2023/04/08 09:11:28;;;;;;;7.05;1.75;;;;;;;18.41;37.77;100135.06;5037190;28;20572;-64
2023/04/08 09:13:56;;;;;;;5.50;2.23;;;;;;;18.55;37.59;100137.19;5037443;28;20197;-64
2023/04/08 09:16:22;;;;;;;6.72;1.00;;;;;;;18.64;37.67;100136.81;5037217;28;20048;-64
2023/04/08 09:18:48;;;;;;;6.17;1.00;;;;;;;18.82;37.71;100136.16;5037130;28;20033;-64
2023/04/08 09:21:15;;;;;;;4.70;0.60;;;;;;;19.03;37.87;100139.75;5037101;28;20036;-64
2023/04/08 09:23:44;;;;;;;5.45;0.80;;;;;;;19.04;36.74;100130.81;5036812;28;20059;-65
2023/04/08 09:26:12;;;;;;;6.05;0.98;;;;;;;19.05;37.04;100135.22;5037010;28;20369;-65
2023/04/08 09:28:39;;;;;;;5.78;1.05;;;;;;;19.10;36.55;100130.56;5037013;28;20080;-64
2023/04/08 09:31:22;;;;;;;5.33;1.23;;;;;;;19.12;36.55;100136.69;5037214;28;20055;-64
2023/04/08 09:33:56;;;;;;;5.13;1.20;;;;;;;19.21;35.47;100140.78;5036875;28;20478;-65
2023/04/08 09:36:22;;;;;;;4.82;1.05;;;;;;;19.42;36.25;100136.34;5045047;28;20033;-65
2023/04/08 09:38:47;;;;;;;4.15;1.00;;;;;;;19.50;35.84;100136.88;5056322;28;20032;-65
2023/04/08 09:41:15;;;;;;;7.10;1.37;;;;;;;19.61;35.44;100140.88;5051199;28;20068;-64
2023/04/08 09:43:47;;;;;;;6.90;0.93;;;;;;;19.78;35.64;100135.66;5037787;28;20048;-65
2023/04/08 09:46:14;;;;;;;4.65;1.05;;;;;;;20.01;35.08;100132.91;5056852;28;20025;-65
2023/04/08 09:48:45;;;;;;;3.78;0.90;;;;;;;20.05;34.60;100134.53;5056827;28;20089;-65
2023/04/08 09:51:15;;;;;;;6.73;1.00;;;;;;;20.04;34.70;100139.00;5056809;28;20068;-65
2023/04/08 09:53:46;;;;;;;6.38;1.25;;;;;;;20.08;34.10;100137.06;5056274;28;20032;-65
2023/04/08 09:56:13;;;;;;;5.47;0.80;;;;;;;20.09;34.00;100136.13;5051371;28;20022;-65
2023/04/08 09:58:47;;;;;;;3.65;0.80;;;;;;;20.14;34.04;100133.25;5036493;28;20255;-65
2023/04/08 10:01:15;;;;;;;3.53;0.65;;;;;;;20.22;33.96;100131.91;5036827;28;20033;-65
2023/04/08 10:03:48;;;;;;;4.63;0.80;;;;;;;20.32;33.54;100134.19;5036524;28;20033;-65
2023/04/08 10:06:15;;;;;;;6.80;0.98;;;;;;;20.49;34.27;100133.38;5040890;28;20453;-65
2023/04/08 10:08:41;;;;;;;5.10;0.90;;;;;;;20.58;34.17;100138.28;5040493;28;20037;-65
2023/04/08 10:11:07;;;;;;;5.05;0.82;;;;;;;20.69;34.20;100129.72;5040806;28;20558;-65
2023/04/08 10:13:33;;;;;;;4.67;1.00;;;;;;;20.83;33.25;100136.25;5040464;28;20025;-65
2023/04/08 10:16:25;;;;;;;5.35;1.23;;;;;;;20.80;32.90;100137.25;5040756;28;20031;-65
2023/04/08 10:18:57;;;;;;;6.57;1.10;;;;;;;20.94;32.72;100132.13;5029764;28;20228;-65
2023/04/08 10:21:41;;;;;;;5.95;0.95;;;;;;;20.88;33.35;100128.88;5040440;28;20064;-64
2023/04/08 10:24:09;;;;;;;4.03;0.90;;;;;;;21.06;32.55;100127.06;5040051;28;20474;-64
2023/04/08 10:26:42;;;;;;;6.80;1.30;;;;;;;21.14;32.84;100130.25;5040598;28;20111;-65
2023/04/08 10:29:16;;;;;;;7.53;1.08;;;;;;;21.32;32.88;100131.13;5040121;28;20017;-65
2023/04/08 10:31:42;;;;;;;6.35;0.90;;;;;;;21.59;32.79;100137.81;5040563;28;20037;-65
2023/04/08 10:34:23;;;;;;;5.77;1.10;;;;;;;21.52;31.93;100138.13;5040128;28;20037;-65
2023/04/08 10:36:49;;;;;;;5.43;1.02;;;;;;;21.58;32.39;100136.06;5031348;28;20113;-65
2023/04/08 10:39:15;;;;;;;6.00;1.02;;;;;;;21.78;32.19;100125.19;5039766;28;20082;-65
2023/04/08 10:42:01;;;;;;;6.25;0.90;;;;;;;21.80;32.17;100127.81;5042069;28;20032;-65
2023/04/08 10:44:26;;;;;;;6.50;1.20;;;;;;;21.97;31.88;100120.69;5040207;28;20025;-65
2023/04/08 10:46:53;;;;;;;5.15;0.93;;;;;;;21.93;31.61;100125.31;5040153;28;20041;-65
2023/04/08 10:49:19;;;;;;;4.55;1.00;;;;;;;21.96;31.51;100119.78;5040020;28;20029;-65
2023/04/08 10:51:45;;;;;;;5.93;1.03;;;;;;;22.13;31.30;100134.13;5040018;28;20030;-65
2023/04/08 10:54:14;;;;;;;4.75;1.20;;;;;;;22.13;31.06;100123.38;5039825;28;20022;-65
2023/04/08 10:56:51;;;;;;;5.28;1.00;;;;;;;22.23;30.73;100124.59;5039697;28;20030;-65
2023/04/08 10:59:26;;;;;;;5.15;1.00;;;;;;;22.37;30.78;100122.03;5040044;28;20064;-64
2023/04/08 11:01:51;;;;;;;4.47;0.90;;;;;;;22.46;30.91;100118.00;5039694;28;20034;-64
2023/04/08 11:04:18;;;;;;;3.87;0.83;;;;;;;22.59;29.89;100112.81;5039903;28;20034;-65
2023/04/08 11:06:46;;;;;;;3.80;0.90;;;;;;;22.62;30.22;100112.63;5039858;28;20264;-65
2023/04/08 11:09:12;;;;;;;5.93;0.98;;;;;;;22.61;30.45;100118.94;5039457;28;20022;-65
2023/04/08 11:11:40;;;;;;;5.10;1.10;;;;;;;22.57;30.74;100101.28;5039131;28;20103;-65
2023/04/08 11:14:06;;;;;;;7.07;1.25;;;;;;;22.53;30.62;100105.06;5039377;28;20037;-65
2023/04/08 11:16:32;;;;;;;5.00;1.00;;;;;;;22.55;30.20;100107.69;5039392;28;20481;-65
2023/04/08 11:18:58;;;;;;;5.50;1.20;;;;;;;22.60;30.96;100105.59;5039646;28;20068;-65
2023/04/08 11:21:24;;;;;;;4.90;1.03;;;;;;;22.68;30.33;100105.16;5039280;28;20029;-64
2023/04/08 11:23:51;;;;;;;5.35;0.90;;;;;;;22.79;29.43;100097.38;5039117;28;20025;-64
2023/04/08 11:26:18;;;;;;;4.88;0.90;;;;;;;22.92;28.80;100098.38;5039487;28;20626;-64
2023/04/08 11:28:45;;;;;;;4.30;0.90;;;;;;;23.05;29.25;100097.66;5039084;28;20105;-64
2023/04/08 11:31:12;;;;;;;5.55;0.80;;;;;;;23.31;28.92;100100.66;5039063;28;20061;-64